Stations météo

réclame
Mon MeteoGroup
Uccle, Belgique (6447): Température de l'air & dewpoint: 19.02.2018 02:00:00 - 25.02.2018 02:00:00 (CET)Uccle, Belgique (6447): Vitesse du vent & gusts: 19.02.2018 02:00:00 - 25.02.2018 02:00:00 (CET)Uccle, Belgique (6447): Direction du vent: 19.02.2018 02:00:00 - 25.02.2018 02:00:00 (CET)Uccle, Belgique (6447): reduced air pressure: 19.02.2018 02:00:00 - 25.02.2018 02:00:00 (CET)Uccle, Belgique (6447): Ensoleillement: 19.02.2018 02:00:00 - 25.02.2018 02:00:00 (CET)Uccle, Belgique (6447): Quantités de précipitations: 19.02.2018 02:00:00 - 25.02.2018 02:00:00 (CET)
Date & Time tt [°C] td [°C] ff [km/h] ff [knt] fx [km/h] fx [knt] dd ppp [hPa] sd [min] rr [mm]
25.02.2018 02:00:00 -2,1 -10,4 19 10 38 20 ENE 1024,9 0 0,0
25.02.2018 01:00:00 -1,7 -10,1 22 12 37 20 ENE 1025,0 0 0,0
25.02.2018 00:00:00 -1,2 -9,3 18 10 40 22 ENE 1024,7 0 0,0
24.02.2018 23:00:00 -1,0 -8,5 17 9 42 23 ENE 1024,3 0 0,0
24.02.2018 22:00:00 -0,7 -7,6 21 12 46 25 ENE 1023,9 0 0,0
24.02.2018 21:00:00 -0,3 -7,5 22 12 44 24 ENE 1023,6 0 0,0
24.02.2018 20:00:00 0,6 -7,2 25 14 51 28 ENE 1023,0 0 0,0
24.02.2018 19:00:00 1,4 -7,0 25 14 50 27 ENE 1022,5 7 0,0
24.02.2018 18:00:00 3,1 -8,3 24 13 50 27 ENE 1021,8 59 0,0
24.02.2018 17:00:00 4,4 -9,9 23 13 53 29 NE 1021,5 60 0,0
24.02.2018 16:00:00 5,4 -10,2 22 12 60 33 ENE 1021,1 60 0,0
24.02.2018 15:00:00 5,6 -10,7 19 10 60 32 ENE 1020,7 60 0,0
24.02.2018 14:00:00 4,3 -12,4 27 14 56 30 ENE 1021,0 60 0,0
24.02.2018 13:00:00 3,2 -13,0 25 14 53 29 ENE 1021,3 60 0,0
24.02.2018 12:00:00 1,6 -13,7 23 12 50 27 ENE 1021,8 60 0,0
24.02.2018 11:00:00 0,2 -13,4 20 11 45 25 ENE 1021,7 60 0,0
24.02.2018 10:00:00 -1,7 -12,7 22 12 43 23 ENE 1021,7 60 0,0
24.02.2018 09:00:00 -3,5 -12,1 23 13 42 23 ENE 1021,5 54 0,0
24.02.2018 08:00:00 -4,1 -11,8 22 12 40 22 ENE 1021,0 0 0,0
24.02.2018 07:00:00 -4,0 -11,3 18 10 44 24 ENE 1020,7 0 0,0
24.02.2018 06:00:00 -3,8 -10,7 19 10 38 21 ENE 1020,3 0 0,0
24.02.2018 05:00:00 -3,4 -10,3 19 10 37 20 ENE 1020,2 0 0,0
24.02.2018 04:00:00 -3,0 -9,8 18 10 38 21 ENE 1019,9 0 0,0
24.02.2018 03:00:00 -2,7 -9,1 16 9 36 19 ENE 1019,9 0 0,0
24.02.2018 02:00:00 -2,4 -8,4 16 9 33 18 ENE 1019,8 0 0,0
24.02.2018 01:00:00 -2,1 -8,7 18 10 35 19 ENE 1019,7 0 0,0
24.02.2018 00:00:00 -1,5 -8,9 19 10 35 19 ENE 1019,3 0 0,0
23.02.2018 23:00:00 -1,0 -9,1 17 9 35 19 ENE 1019,3 0 0,0
23.02.2018 22:00:00 -0,7 -9,1 21 11 38 20 ENE 1019,4 0 0,0
23.02.2018 21:00:00 -0,1 -9,4 17 9 42 23 ENE 1019,1 0 0,0
23.02.2018 20:00:00 0,4 -9,5 21 12 46 25 ENE 1019,1 0 0,0
23.02.2018 19:00:00 0,8 -9,4 14 8 - - ENE 1019,2 6 0,0
23.02.2018 18:00:00 1,6 -9,5 20 11 40 22 ENE 1019,0 60 0,0
23.02.2018 17:00:00 2,6 -9,7 17 9 41 22 ENE 1019,0 60 0,0
23.02.2018 16:00:00 3,1 -8,8 16 9 39 21 ENE 1019,1 60 0,0
23.02.2018 15:00:00 3,0 -8,6 18 10 39 21 E 1019,4 60 0,0
23.02.2018 14:00:00 2,8 -8,1 22 12 41 22 ENE 1019,9 60 0,0
23.02.2018 13:00:00 1,7 -6,3 18 10 41 22 ENE 1020,4 60 0,0
23.02.2018 12:00:00 1,2 -6,1 20 11 38 21 ENE 1020,9 58 0,0
23.02.2018 11:00:00 -0,1 -5,3 18 10 36 20 ENE 1021,1 59 0,0
23.02.2018 10:00:00 -1,6 -4,4 16 9 34 18 NE 1021,4 60 0,0
23.02.2018 09:00:00 -2,8 -4,5 15 8 24 13 NE 1021,4 48 0,0
23.02.2018 08:00:00 -3,2 -5,1 11 6 25 13 NE 1021,6 0 0,0
23.02.2018 07:00:00 -3,2 -5,5 11 6 23 13 NE 1021,4 0 0,0
23.02.2018 06:00:00 -2,8 -6,2 14 7 29 16 NE 1021,3 0 0,0
23.02.2018 05:00:00 -2,5 -6,5 15 8 31 17 NE 1021,0 0 0,0
23.02.2018 04:00:00 -2,3 -7,0 16 9 27 15 NE 1021,1 0 0,0
23.02.2018 03:00:00 -1,8 -7,3 14 7 33 18 ENE 1021,2 0 0,0
23.02.2018 02:00:00 -1,5 -6,6 13 7 28 15 ENE 1021,5 0 0,0
23.02.2018 01:00:00 -1,2 -6,3 14 8 31 17 ENE 1021,8 0 0,0
23.02.2018 00:00:00 -0,8 -6,1 16 9 34 18 ENE 1021,7 0 0,0
22.02.2018 23:00:00 -0,2 -6,1 18 10 36 19 ENE 1021,7 0 0,0
22.02.2018 22:00:00 0,3 -6,1 18 10 36 20 ENE 1021,5 0 0,0
22.02.2018 21:00:00 0,9 -6,2 19 11 36 20 NE 1021,4 0 0,0
22.02.2018 20:00:00 1,7 -6,2 21 11 37 20 NE 1021,4 0 0,0
22.02.2018 19:00:00 2,3 -6,8 18 10 39 21 NE 1021,1 1 0,0
22.02.2018 18:00:00 3,2 -6,9 21 11 42 23 NE 1020,9 60 0,0
22.02.2018 17:00:00 3,9 -6,8 21 11 44 24 NE 1020,8 60 0,0
22.02.2018 16:00:00 4,3 -7,0 24 13 46 25 NE 1020,8 60 0,0
22.02.2018 15:00:00 4,7 -7,5 20 11 42 23 ENE 1021,3 60 0,0
22.02.2018 14:00:00 4,7 -7,5 16 8 41 22 ENE 1022,0 60 0,0
22.02.2018 13:00:00 3,8 -5,7 18 10 39 21 ENE 1022,6 60 0,0
22.02.2018 12:00:00 2,9 -4,7 16 8 39 21 ENE 1022,9 60 0,0
22.02.2018 11:00:00 1,4 -4,1 14 8 35 19 ENE 1023,2 60 0,0
22.02.2018 10:00:00 -0,9 -3,3 14 7 29 16 ENE 1023,3 60 0,0
22.02.2018 09:00:00 -2,6 -3,7 15 8 29 16 NE 1023,2 46 0,0
22.02.2018 08:00:00 -3,1 -4,0 16 9 29 16 NE 1023,0 0 0,0
22.02.2018 07:00:00 -3,0 -3,8 14 8 30 16 NE 1022,7 0 0,0
22.02.2018 06:00:00 -2,8 -3,8 14 8 32 18 NE 1022,5 0 0,0
22.02.2018 05:00:00 -2,7 -3,8 15 8 28 15 NE 1022,4 0 0,0
22.02.2018 04:00:00 -2,3 -3,6 15 8 26 14 NE 1022,6 0 0,0
22.02.2018 03:00:00 -1,9 -3,8 15 8 27 15 NE 1022,9 0 0,0
22.02.2018 02:00:00 -1,6 -3,9 13 7 26 14 NE 1023,1 0 0,0
22.02.2018 01:00:00 -1,1 -4,1 14 8 25 14 NE 1023,4 0 0,0
22.02.2018 00:00:00 -0,6 -4,1 14 7 29 16 NE 1023,7 0 0,0
21.02.2018 23:00:00 0,1 -3,8 14 8 26 14 NE 1024,0 0 0,0
21.02.2018 22:00:00 0,9 -3,5 16 8 26 14 NE 1024,0 0 0,0
21.02.2018 21:00:00 1,4 -3,1 12 7 25 14 NNE 1023,9 0 0,0
21.02.2018 20:00:00 1,9 -3,2 12 6 25 14 NNE 1023,9 0 0,0
21.02.2018 19:00:00 2,6 -3,5 11 6 24 13 NNE 1023,8 0 0,0
21.02.2018 18:00:00 3,5 -3,9 16 9 26 14 N 1023,5 50 0,0
21.02.2018 17:00:00 4,2 -4,4 16 8 27 15 NNE 1023,3 60 0,0
21.02.2018 16:00:00 4,6 -3,8 14 8 35 19 NNE 1023,5 60 0,0
21.02.2018 15:00:00 4,4 -3,9 15 8 30 16 NNE 1024,2 60 0,0
21.02.2018 14:00:00 - - - - - - - - - -
21.02.2018 13:00:00 3,2 -3,1 14 8 - - NE 1025,4 - -
21.02.2018 12:00:00 2,3 -2,7 11 6 22 12 ENE 1025,6 - -
21.02.2018 11:00:00 0,8 -1,8 11 6 22 12 ENE 1025,6 - -
21.02.2018 10:00:00 -0,7 -2,3 10 5 21 12 NE 1025,5 60 0,0
21.02.2018 09:00:00 -1,8 -2,8 11 6 22 12 NE 1025,0 26 0,0
21.02.2018 08:00:00 -2,0 -2,9 12 7 24 13 NNE 1025,0 0 0,0
21.02.2018 07:00:00 -1,9 -2,7 11 6 23 12 NNE 1024,7 0 0,0
21.02.2018 06:00:00 -1,6 -2,5 11 6 20 11 N 1024,3 0 0,0
21.02.2018 05:00:00 -1,3 -2,4 12 6 21 12 NE 1024,0 0 0,0
21.02.2018 04:00:00 -0,9 -2,3 12 6 25 14 NE 1023,7 0 0,0
21.02.2018 03:00:00 -0,4 -2,0 14 8 26 14 NE 1023,5 0 0,0
21.02.2018 02:00:00 -0,1 -2,4 11 6 23 12 NE 1023,2 0 0,0
21.02.2018 01:00:00 0,4 -2,3 11 6 27 15 NE 1023,3 0 0,0
21.02.2018 00:00:00 1,0 -2,0 15 8 25 14 NNE 1022,5 0 0,0
20.02.2018 23:00:00 1,8 -1,8 12 6 25 13 NNE 1021,8 0 0,0
20.02.2018 22:00:00 2,3 -1,8 11 6 26 14 NE 1021,2 0 0,0
20.02.2018 21:00:00 2,8 -1,8 11 6 23 12 NE 1020,7 0 0,0
20.02.2018 20:00:00 3,1 -1,6 9 5 21 11 NNE 1020,2 0 0,0
20.02.2018 19:00:00 3,7 -1,9 11 6 20 11 NE 1019,4 0 0,0
20.02.2018 18:00:00 4,1 -2,4 10 6 21 11 NNE 1018,9 0 0,0
20.02.2018 17:00:00 4,8 -2,3 10 5 17 9 N 1018,3 0 0,0
20.02.2018 16:00:00 5,1 -2,1 8 5 15 8 NNE 1018,0 0 0,0
20.02.2018 15:00:00 5,4 -1,7 8 4 14 8 NE 1018,0 0 0,0
20.02.2018 14:00:00 5,1 -2,0 4 2 9 5 ENE 1018,3 0 0,0
20.02.2018 13:00:00 5,2 -1,0 4 2 12 6 ESE 1018,5 49 0,0
20.02.2018 12:00:00 3,7 -0,1 7 4 12 7 E 1018,6 1 0,0
20.02.2018 11:00:00 3,2 0,0 5 3 11 6 NE 1018,8 0 0,0
20.02.2018 10:00:00 2,0 1,9 6 4 11 6 E 1018,2 10 0,0
20.02.2018 09:00:00 1,0 1,0 6 3 8 5 ENE 1018,1 0 0,0
20.02.2018 08:00:00 0,7 0,7 4 2 10 5 N 1018,1 0 0,0
20.02.2018 07:00:00 0,6 0,6 4 2 7 4 E 1017,4 0 0,0
20.02.2018 06:00:00 0,7 0,7 4 2 10 5 E 1017,6 0 0,0
20.02.2018 05:00:00 0,9 0,9 5 3 11 6 E 1017,4 0 0,0
20.02.2018 04:00:00 0,9 0,8 9 5 11 6 E 1017,5 0 0,0
20.02.2018 03:00:00 1,4 1,2 5 3 6 3 E 1017,2 0 0,0
20.02.2018 02:00:00 1,8 1,5 4 2 9 5 E 1017,2 0 0,0
20.02.2018 01:00:00 1,9 1,7 4 2 8 5 ESE 1017,4 0 0,0
20.02.2018 00:00:00 2,2 1,9 4 2 11 6 SSE 1017,1 0 0,0
19.02.2018 23:00:00 2,3 2,0 6 4 13 7 SE 1017,0 0 0,0
19.02.2018 22:00:00 2,4 2,1 6 3 16 8 SSE 1017,4 0 0,0
19.02.2018 21:00:00 2,5 2,1 8 5 17 9 SSE 1017,2 0 0,2
19.02.2018 20:00:00 3,1 2,2 11 6 17 9 SE 1017,2 0 0,1
19.02.2018 19:00:00 3,2 2,1 11 6 20 11 SSE 1017,1 0 0,0
19.02.2018 18:00:00 3,4 2,0 9 5 16 9 SSE 1017,2 0 0,1
19.02.2018 17:00:00 3,8 1,4 11 6 17 9 S 1017,3 0 0,0
19.02.2018 16:00:00 4,0 1,2 9 5 19 10 SSE 1017,8 0 0,0
19.02.2018 15:00:00 3,7 0,9 13 7 18 10 SSE 1018,2 0 0,0
19.02.2018 14:00:00 3,5 0,6 10 6 18 10 SSE 1018,6 0 0,0
19.02.2018 13:00:00 3,0 0,0 11 6 17 9 SSE 1019,1 0 0,0
19.02.2018 12:00:00 2,8 -0,1 8 5 18 10 S 1019,4 0 0,0
19.02.2018 11:00:00 2,1 -0,5 11 6 20 11 SSW 1019,5 27 0,0
19.02.2018 10:00:00 0,3 -1,1 11 6 23 12 S 1019,9 0 0,0
19.02.2018 09:00:00 -0,2 -1,3 11 6 19 10 S 1020,3 0 0,0
19.02.2018 08:00:00 -0,3 -1,3 10 6 19 10 S 1020,7 0 0,0
19.02.2018 07:00:00 -0,3 -1,3 11 6 16 9 S 1020,4 0 0,0
19.02.2018 06:00:00 -0,2 -1,4 10 5 18 10 S 1020,7 0 0,0
19.02.2018 05:00:00 -0,1 -1,4 10 6 16 9 S 1020,8 0 0,0
19.02.2018 04:00:00 0,1 -1,3 8 4 21 11 SSE 1021,2 0 0,0
19.02.2018 03:00:00 0,1 -1,0 9 5 22 12 S 1021,8 0 0,0
19.02.2018 02:00:00 0,3 -1,1 11 6 25 14 S 1022,3 0 0,0

tt = Température de l'air
td = dewpoint
ff = Vitesse du vent
fx = gusts
dd = Direction du vent
ppp = reduced air pressure
sd = Ensoleillement
rr = Quantités de précipitations

stations d'obs. à proximité